sensor_id;sensor_type;location;lat;lon;timestamp;temperature;humidity
19330;DHT22;9799;48.214;16.388;2023-05-10T00:01:46;13.00;99.90
19330;DHT22;9799;48.214;16.388;2023-05-10T00:05:07;13.00;99.90
19330;DHT22;9799;48.214;16.388;2023-05-10T00:08:29;13.00;99.90
19330;DHT22;9799;48.214;16.388;2023-05-10T00:11:50;13.00;99.90
19330;DHT22;9799;48.214;16.388;2023-05-10T00:15:13;13.00;99.90
19330;DHT22;9799;48.214;16.388;2023-05-10T00:18:34;12.80;99.90
19330;DHT22;9799;48.214;16.388;2023-05-10T00:21:55;12.80;99.90
19330;DHT22;9799;48.214;16.388;2023-05-10T00:25:16;12.70;99.90
19330;DHT22;9799;48.214;16.388;2023-05-10T00:28:38;12.70;99.90
19330;DHT22;9799;48.214;16.388;2023-05-10T00:32:00;12.80;99.90
19330;DHT22;9799;48.214;16.388;2023-05-10T00:35:21;12.80;99.90
19330;DHT22;9799;48.214;16.388;2023-05-10T00:38:43;12.80;99.90
19330;DHT22;9799;48.214;16.388;2023-05-10T00:42:04;12.80;99.90
19330;DHT22;9799;48.214;16.388;2023-05-10T00:45:25;12.70;99.90
19330;DHT22;9799;48.214;16.388;2023-05-10T00:48:48;12.70;99.90
19330;DHT22;9799;48.214;16.388;2023-05-10T00:52:10;12.70;99.90
19330;DHT22;9799;48.214;16.388;2023-05-10T00:55:31;12.70;99.90
19330;DHT22;9799;48.214;16.388;2023-05-10T00:58:52;12.50;99.90
19330;DHT22;9799;48.214;16.388;2023-05-10T01:02:13;12.40;99.90
19330;DHT22;9799;48.214;16.388;2023-05-10T01:05:36;12.40;99.90
19330;DHT22;9799;48.214;16.388;2023-05-10T01:08:57;12.50;99.90
19330;DHT22;9799;48.214;16.388;2023-05-10T01:12:18;12.40;99.90
19330;DHT22;9799;48.214;16.388;2023-05-10T01:15:40;12.40;99.90
19330;DHT22;9799;48.214;16.388;2023-05-10T01:19:01;12.40;99.90
19330;DHT22;9799;48.214;16.388;2023-05-10T01:22:38;12.50;99.90
19330;DHT22;9799;48.214;16.388;2023-05-10T01:26:16;12.40;99.90
19330;DHT22;9799;48.214;16.388;2023-05-10T01:30:05;12.30;99.90
19330;DHT22;9799;48.214;16.388;2023-05-10T01:33:30;12.30;99.90
19330;DHT22;9799;48.214;16.388;2023-05-10T01:37:01;12.30;99.90
19330;DHT22;9799;48.214;16.388;2023-05-10T01:40:32;12.20;99.90
19330;DHT22;9799;48.214;16.388;2023-05-10T01:43:57;12.30;99.90
19330;DHT22;9799;48.214;16.388;2023-05-10T01:47:29;12.30;99.90
19330;DHT22;9799;48.214;16.388;2023-05-10T01:50:53;12.20;99.90
19330;DHT22;9799;48.214;16.388;2023-05-10T01:54:17;12.20;99.90
19330;DHT22;9799;48.214;16.388;2023-05-10T01:57:43;12.20;99.90
19330;DHT22;9799;48.214;16.388;2023-05-10T02:01:06;12.20;99.90
19330;DHT22;9799;48.214;16.388;2023-05-10T02:04:28;12.20;99.90
19330;DHT22;9799;48.214;16.388;2023-05-10T02:07:51;12.10;99.90
19330;DHT22;9799;48.214;16.388;2023-05-10T02:11:14;12.10;99.90
19330;DHT22;9799;48.214;16.388;2023-05-10T02:14:36;12.10;99.90
19330;DHT22;9799;48.214;16.388;2023-05-10T02:17:58;12.10;99.90
19330;DHT22;9799;48.214;16.388;2023-05-10T02:21:21;12.00;99.90
19330;DHT22;9799;48.214;16.388;2023-05-10T02:24:46;12.00;99.90
19330;DHT22;9799;48.214;16.388;2023-05-10T02:28:08;11.90;99.90
19330;DHT22;9799;48.214;16.388;2023-05-10T02:31:33;11.90;99.90
19330;DHT22;9799;48.214;16.388;2023-05-10T02:34:55;12.00;99.90
19330;DHT22;9799;48.214;16.388;2023-05-10T02:38:19;11.90;99.90
19330;DHT22;9799;48.214;16.388;2023-05-10T02:41:43;11.90;99.90
19330;DHT22;9799;48.214;16.388;2023-05-10T02:45:10;11.80;99.90
19330;DHT22;9799;48.214;16.388;2023-05-10T02:48:32;11.80;99.90
19330;DHT22;9799;48.214;16.388;2023-05-10T02:51:57;11.70;99.90
19330;DHT22;9799;48.214;16.388;2023-05-10T02:55:27;11.70;99.90
19330;DHT22;9799;48.214;16.388;2023-05-10T02:58:53;11.70;99.90
19330;DHT22;9799;48.214;16.388;2023-05-10T03:02:15;11.70;99.90
19330;DHT22;9799;48.214;16.388;2023-05-10T03:05:37;11.60;99.90
19330;DHT22;9799;48.214;16.388;2023-05-10T03:08:58;11.60;99.90
19330;DHT22;9799;48.214;16.388;2023-05-10T03:12:28;11.60;99.90
19330;DHT22;9799;48.214;16.388;2023-05-10T03:15:57;11.50;99.90
19330;DHT22;9799;48.214;16.388;2023-05-10T03:19:24;11.50;99.90
19330;DHT22;9799;48.214;16.388;2023-05-10T03:22:51;11.50;99.90
19330;DHT22;9799;48.214;16.388;2023-05-10T03:26:15;11.50;99.90
19330;DHT22;9799;48.214;16.388;2023-05-10T03:29:38;11.50;99.90
19330;DHT22;9799;48.214;16.388;2023-05-10T03:33:05;11.40;99.90
19330;DHT22;9799;48.214;16.388;2023-05-10T03:36:27;11.30;99.90
19330;DHT22;9799;48.214;16.388;2023-05-10T03:39:48;11.30;99.90
19330;DHT22;9799;48.214;16.388;2023-05-10T03:43:09;11.40;99.90
19330;DHT22;9799;48.214;16.388;2023-05-10T03:46:30;11.40;99.90
19330;DHT22;9799;48.214;16.388;2023-05-10T03:49:53;11.50;99.90
19330;DHT22;9799;48.214;16.388;2023-05-10T03:53:14;11.40;99.90
19330;DHT22;9799;48.214;16.388;2023-05-10T03:56:35;11.50;99.90
19330;DHT22;9799;48.214;16.388;2023-05-10T03:59:56;11.30;99.90
19330;DHT22;9799;48.214;16.388;2023-05-10T04:03:18;11.10;99.90
19330;DHT22;9799;48.214;16.388;2023-05-10T04:06:41;11.20;99.90
19330;DHT22;9799;48.214;16.388;2023-05-10T04:10:02;11.20;99.90
19330;DHT22;9799;48.214;16.388;2023-05-10T04:13:23;11.20;99.90
19330;DHT22;9799;48.214;16.388;2023-05-10T04:16:45;11.10;99.90
19330;DHT22;9799;48.214;16.388;2023-05-10T04:20:07;11.10;99.90
19330;DHT22;9799;48.214;16.388;2023-05-10T04:23:29;11.20;99.90
19330;DHT22;9799;48.214;16.388;2023-05-10T04:26:50;11.20;99.90
19330;DHT22;9799;48.214;16.388;2023-05-10T04:30:12;11.20;99.90
19330;DHT22;9799;48.214;16.388;2023-05-10T04:33:33;11.30;99.90
19330;DHT22;9799;48.214;16.388;2023-05-10T04:36:55;11.40;99.90
19330;DHT22;9799;48.214;16.388;2023-05-10T04:40:17;11.50;99.90
19330;DHT22;9799;48.214;16.388;2023-05-10T04:43:39;11.50;99.90
19330;DHT22;9799;48.214;16.388;2023-05-10T04:47:00;11.40;99.90
19330;DHT22;9799;48.214;16.388;2023-05-10T04:50:22;11.50;99.90
19330;DHT22;9799;48.214;16.388;2023-05-10T04:53:43;11.60;99.90
19330;DHT22;9799;48.214;16.388;2023-05-10T04:57:06;11.50;99.90
19330;DHT22;9799;48.214;16.388;2023-05-10T05:00:27;11.60;99.90
19330;DHT22;9799;48.214;16.388;2023-05-10T05:03:49;11.80;99.90
19330;DHT22;9799;48.214;16.388;2023-05-10T05:07:10;11.80;99.90
19330;DHT22;9799;48.214;16.388;2023-05-10T05:10:31;11.90;99.90
19330;DHT22;9799;48.214;16.388;2023-05-10T05:13:54;12.00;99.90
19330;DHT22;9799;48.214;16.388;2023-05-10T05:17:15;12.00;99.90
19330;DHT22;9799;48.214;16.388;2023-05-10T05:20:36;12.20;99.90
19330;DHT22;9799;48.214;16.388;2023-05-10T05:23:57;12.30;99.90
19330;DHT22;9799;48.214;16.388;2023-05-10T05:27:18;12.40;99.90
19330;DHT22;9799;48.214;16.388;2023-05-10T05:30:42;12.50;99.90
19330;DHT22;9799;48.214;16.388;2023-05-10T05:34:03;12.70;99.90
19330;DHT22;9799;48.214;16.388;2023-05-10T05:37:24;12.80;99.90
19330;DHT22;9799;48.214;16.388;2023-05-10T05:40:46;13.00;99.90
19330;DHT22;9799;48.214;16.388;2023-05-10T05:44:07;13.40;99.90
19330;DHT22;9799;48.214;16.388;2023-05-10T05:47:29;13.60;99.90
19330;DHT22;9799;48.214;16.388;2023-05-10T05:50:54;13.90;99.90
19330;DHT22;9799;48.214;16.388;2023-05-10T05:54:16;14.20;99.90
19330;DHT22;9799;48.214;16.388;2023-05-10T05:57:37;14.30;99.90
19330;DHT22;9799;48.214;16.388;2023-05-10T06:00:58;14.40;99.90
19330;DHT22;9799;48.214;16.388;2023-05-10T06:04:21;14.50;99.90
19330;DHT22;9799;48.214;16.388;2023-05-10T06:07:42;14.70;99.90
19330;DHT22;9799;48.214;16.388;2023-05-10T06:11:03;14.80;99.90
19330;DHT22;9799;48.214;16.388;2023-05-10T06:14:24;14.90;99.90
19330;DHT22;9799;48.214;16.388;2023-05-10T06:17:46;15.10;99.90
19330;DHT22;9799;48.214;16.388;2023-05-10T06:21:10;15.30;99.90
19330;DHT22;9799;48.214;16.388;2023-05-10T06:24:31;15.40;99.90
19330;DHT22;9799;48.214;16.388;2023-05-10T06:27:52;15.50;99.90
19330;DHT22;9799;48.214;16.388;2023-05-10T06:31:17;15.50;99.90
19330;DHT22;9799;48.214;16.388;2023-05-10T06:34:38;15.70;99.90
19330;DHT22;9799;48.214;16.388;2023-05-10T06:38:01;15.90;99.90
19330;DHT22;9799;48.214;16.388;2023-05-10T06:41:22;15.90;99.90
19330;DHT22;9799;48.214;16.388;2023-05-10T06:44:43;15.90;99.90
19330;DHT22;9799;48.214;16.388;2023-05-10T06:48:05;15.80;99.90
19330;DHT22;9799;48.214;16.388;2023-05-10T06:51:26;16.00;99.90
19330;DHT22;9799;48.214;16.388;2023-05-10T06:54:49;15.90;99.90
19330;DHT22;9799;48.214;16.388;2023-05-10T06:58:10;15.80;99.90
19330;DHT22;9799;48.214;16.388;2023-05-10T07:01:31;15.90;99.90
19330;DHT22;9799;48.214;16.388;2023-05-10T07:04:52;15.90;99.90
19330;DHT22;9799;48.214;16.388;2023-05-10T07:08:14;16.00;99.90
19330;DHT22;9799;48.214;16.388;2023-05-10T07:11:36;16.00;99.90
19330;DHT22;9799;48.214;16.388;2023-05-10T07:14:57;16.10;99.90
19330;DHT22;9799;48.214;16.388;2023-05-10T07:18:18;16.20;99.90
19330;DHT22;9799;48.214;16.388;2023-05-10T07:21:40;16.20;99.90
19330;DHT22;9799;48.214;16.388;2023-05-10T07:25:03;16.10;99.90
19330;DHT22;9799;48.214;16.388;2023-05-10T07:28:26;16.30;99.90
19330;DHT22;9799;48.214;16.388;2023-05-10T07:31:47;16.20;99.90
19330;DHT22;9799;48.214;16.388;2023-05-10T07:35:09;16.30;99.90
19330;DHT22;9799;48.214;16.388;2023-05-10T07:38:30;16.20;99.90
19330;DHT22;9799;48.214;16.388;2023-05-10T07:41:51;16.40;99.90
19330;DHT22;9799;48.214;16.388;2023-05-10T07:45:13;16.50;99.90
19330;DHT22;9799;48.214;16.388;2023-05-10T07:48:36;16.60;99.90
19330;DHT22;9799;48.214;16.388;2023-05-10T07:51:57;16.50;99.90
19330;DHT22;9799;48.214;16.388;2023-05-10T07:55:18;16.70;99.90
19330;DHT22;9799;48.214;16.388;2023-05-10T07:58:45;16.70;99.90
19330;DHT22;9799;48.214;16.388;2023-05-10T08:02:08;16.70;99.90
19330;DHT22;9799;48.214;16.388;2023-05-10T08:05:29;16.80;99.90
19330;DHT22;9799;48.214;16.388;2023-05-10T08:08:51;16.90;99.90
19330;DHT22;9799;48.214;16.388;2023-05-10T08:12:13;16.80;99.90
19330;DHT22;9799;48.214;16.388;2023-05-10T08:15:34;16.90;99.90
19330;DHT22;9799;48.214;16.388;2023-05-10T08:18:57;17.00;99.90
19330;DHT22;9799;48.214;16.388;2023-05-10T08:22:18;17.10;99.90
19330;DHT22;9799;48.214;16.388;2023-05-10T08:25:40;17.20;99.90
19330;DHT22;9799;48.214;16.388;2023-05-10T08:29:01;17.30;99.90
19330;DHT22;9799;48.214;16.388;2023-05-10T08:32:22;17.20;99.90
19330;DHT22;9799;48.214;16.388;2023-05-10T08:35:44;17.40;99.90
19330;DHT22;9799;48.214;16.388;2023-05-10T08:39:06;17.50;99.90
19330;DHT22;9799;48.214;16.388;2023-05-10T08:42:30;17.30;99.90
19330;DHT22;9799;48.214;16.388;2023-05-10T08:45:53;17.30;99.90
19330;DHT22;9799;48.214;16.388;2023-05-10T08:49:17;17.40;99.90
19330;DHT22;9799;48.214;16.388;2023-05-10T08:52:40;17.60;99.90
19330;DHT22;9799;48.214;16.388;2023-05-10T08:56:02;17.50;99.90
19330;DHT22;9799;48.214;16.388;2023-05-10T08:59:24;17.40;99.90
19330;DHT22;9799;48.214;16.388;2023-05-10T09:02:45;17.60;99.90
19330;DHT22;9799;48.214;16.388;2023-05-10T09:06:06;17.80;99.90
19330;DHT22;9799;48.214;16.388;2023-05-10T09:09:29;17.80;99.90
19330;DHT22;9799;48.214;16.388;2023-05-10T09:12:51;17.90;99.90
19330;DHT22;9799;48.214;16.388;2023-05-10T09:16:12;17.90;99.90
19330;DHT22;9799;48.214;16.388;2023-05-10T09:19:33;18.00;99.90
19330;DHT22;9799;48.214;16.388;2023-05-10T09:22:55;18.40;99.90
19330;DHT22;9799;48.214;16.388;2023-05-10T09:26:22;18.50;99.90
19330;DHT22;9799;48.214;16.388;2023-05-10T09:29:43;18.20;99.90
19330;DHT22;9799;48.214;16.388;2023-05-10T09:33:04;18.40;99.90
19330;DHT22;9799;48.214;16.388;2023-05-10T09:36:26;18.40;99.90
19330;DHT22;9799;48.214;16.388;2023-05-10T09:39:47;18.40;99.90
19330;DHT22;9799;48.214;16.388;2023-05-10T09:43:10;18.40;99.90
19330;DHT22;9799;48.214;16.388;2023-05-10T09:46:35;18.00;99.90
19330;DHT22;9799;48.214;16.388;2023-05-10T09:49:57;18.20;99.90
19330;DHT22;9799;48.214;16.388;2023-05-10T09:53:22;18.40;99.90
19330;DHT22;9799;48.214;16.388;2023-05-10T09:56:44;18.30;99.90
19330;DHT22;9799;48.214;16.388;2023-05-10T10:00:07;18.80;99.90
19330;DHT22;9799;48.214;16.388;2023-05-10T10:03:30;18.90;99.90
19330;DHT22;9799;48.214;16.388;2023-05-10T10:07:04;18.90;99.90
19330;DHT22;9799;48.214;16.388;2023-05-10T10:10:26;18.90;99.10
19330;DHT22;9799;48.214;16.388;2023-05-10T10:13:48;19.20;99.30
19330;DHT22;9799;48.214;16.388;2023-05-10T10:17:12;19.20;99.90
19330;DHT22;9799;48.214;16.388;2023-05-10T10:20:35;19.10;98.30
19330;DHT22;9799;48.214;16.388;2023-05-10T10:23:58;19.30;98.90
19330;DHT22;9799;48.214;16.388;2023-05-10T10:27:23;19.20;96.80
19330;DHT22;9799;48.214;16.388;2023-05-10T10:30:48;19.50;96.90
19330;DHT22;9799;48.214;16.388;2023-05-10T10:34:21;19.80;95.90
19330;DHT22;9799;48.214;16.388;2023-05-10T10:37:46;19.60;97.70
19330;DHT22;9799;48.214;16.388;2023-05-10T10:41:10;19.70;94.50
19330;DHT22;9799;48.214;16.388;2023-05-10T10:44:36;19.60;95.10
19330;DHT22;9799;48.214;16.388;2023-05-10T10:48:19;19.80;95.10
19330;DHT22;9799;48.214;16.388;2023-05-10T10:56:05;19.70;94.70
19330;DHT22;9799;48.214;16.388;2023-05-10T10:59:27;20.00;94.70
19330;DHT22;9799;48.214;16.388;2023-05-10T11:02:50;19.80;95.10
19330;DHT22;9799;48.214;16.388;2023-05-10T11:06:11;20.20;94.40
19330;DHT22;9799;48.214;16.388;2023-05-10T11:09:39;20.40;93.50
19330;DHT22;9799;48.214;16.388;2023-05-10T11:13:01;20.20;94.80
19330;DHT22;9799;48.214;16.388;2023-05-10T11:16:24;19.90;93.60
19330;DHT22;9799;48.214;16.388;2023-05-10T11:20:07;19.80;97.40
19330;DHT22;9799;48.214;16.388;2023-05-10T11:23:33;19.60;95.70
19330;DHT22;9799;48.214;16.388;2023-05-10T11:27:09;20.10;93.90
19330;DHT22;9799;48.214;16.388;2023-05-10T11:30:32;20.20;94.20
19330;DHT22;9799;48.214;16.388;2023-05-10T11:33:54;20.00;93.60
19330;DHT22;9799;48.214;16.388;2023-05-10T11:37:17;20.00;93.00
19330;DHT22;9799;48.214;16.388;2023-05-10T11:40:39;20.10;93.30
19330;DHT22;9799;48.214;16.388;2023-05-10T11:44:02;20.30;93.00
19330;DHT22;9799;48.214;16.388;2023-05-10T11:47:23;19.60;94.00
19330;DHT22;9799;48.214;16.388;2023-05-10T11:50:46;19.90;93.20
19330;DHT22;9799;48.214;16.388;2023-05-10T11:54:08;19.90;92.80
19330;DHT22;9799;48.214;16.388;2023-05-10T11:57:29;20.10;92.80
19330;DHT22;9799;48.214;16.388;2023-05-10T12:00:52;19.80;93.80
19330;DHT22;9799;48.214;16.388;2023-05-10T12:04:13;19.80;93.40
19330;DHT22;9799;48.214;16.388;2023-05-10T12:07:35;20.10;91.90
19330;DHT22;9799;48.214;16.388;2023-05-10T12:11:05;20.10;91.80
19330;DHT22;9799;48.214;16.388;2023-05-10T12:14:26;19.70;92.00
19330;DHT22;9799;48.214;16.388;2023-05-10T12:17:50;20.00;92.50
19330;DHT22;9799;48.214;16.388;2023-05-10T12:21:12;19.90;94.30
19330;DHT22;9799;48.214;16.388;2023-05-10T12:24:34;20.50;91.20
19330;DHT22;9799;48.214;16.388;2023-05-10T12:27:57;20.50;90.60
19330;DHT22;9799;48.214;16.388;2023-05-10T12:31:21;20.50;89.20
19330;DHT22;9799;48.214;16.388;2023-05-10T12:34:46;20.40;90.00
19330;DHT22;9799;48.214;16.388;2023-05-10T12:38:24;20.50;90.50
19330;DHT22;9799;48.214;16.388;2023-05-10T12:41:45;20.30;90.20
19330;DHT22;9799;48.214;16.388;2023-05-10T12:45:08;20.50;90.40
19330;DHT22;9799;48.214;16.388;2023-05-10T12:48:29;20.50;90.80
19330;DHT22;9799;48.214;16.388;2023-05-10T12:51:52;20.30;91.20
19330;DHT22;9799;48.214;16.388;2023-05-10T12:55:14;20.20;90.90
19330;DHT22;9799;48.214;16.388;2023-05-10T12:58:35;20.20;90.40
19330;DHT22;9799;48.214;16.388;2023-05-10T13:01:57;20.30;90.50
19330;DHT22;9799;48.214;16.388;2023-05-10T13:05:18;20.20;90.60
19330;DHT22;9799;48.214;16.388;2023-05-10T13:08:41;20.30;90.40
19330;DHT22;9799;48.214;16.388;2023-05-10T13:12:02;20.00;90.30
19330;DHT22;9799;48.214;16.388;2023-05-10T13:15:23;20.20;90.90
19330;DHT22;9799;48.214;16.388;2023-05-10T13:18:44;20.30;90.70
19330;DHT22;9799;48.214;16.388;2023-05-10T13:22:06;20.00;91.00
19330;DHT22;9799;48.214;16.388;2023-05-10T13:25:28;20.00;91.70
19330;DHT22;9799;48.214;16.388;2023-05-10T13:28:50;20.10;92.40
19330;DHT22;9799;48.214;16.388;2023-05-10T13:32:11;20.20;91.30
19330;DHT22;9799;48.214;16.388;2023-05-10T13:35:32;20.10;91.70
19330;DHT22;9799;48.214;16.388;2023-05-10T13:38:53;20.10;92.00
19330;DHT22;9799;48.214;16.388;2023-05-10T13:42:16;19.70;90.90
19330;DHT22;9799;48.214;16.388;2023-05-10T13:45:37;20.10;90.90
19330;DHT22;9799;48.214;16.388;2023-05-10T13:48:59;19.80;91.50
19330;DHT22;9799;48.214;16.388;2023-05-10T13:52:20;20.10;90.40
19330;DHT22;9799;48.214;16.388;2023-05-10T13:55:41;20.20;90.30
19330;DHT22;9799;48.214;16.388;2023-05-10T13:59:04;19.90;89.80
19330;DHT22;9799;48.214;16.388;2023-05-10T14:02:25;19.60;89.70
19330;DHT22;9799;48.214;16.388;2023-05-10T14:05:47;19.70;89.40
19330;DHT22;9799;48.214;16.388;2023-05-10T14:09:08;19.60;89.70
19330;DHT22;9799;48.214;16.388;2023-05-10T14:12:29;19.80;88.30
19330;DHT22;9799;48.214;16.388;2023-05-10T14:15:53;19.80;88.00
19330;DHT22;9799;48.214;16.388;2023-05-10T14:19:14;19.60;88.10
19330;DHT22;9799;48.214;16.388;2023-05-10T14:22:35;19.80;87.30
19330;DHT22;9799;48.214;16.388;2023-05-10T14:25:56;19.80;87.90
19330;DHT22;9799;48.214;16.388;2023-05-10T14:29:17;19.90;86.20
19330;DHT22;9799;48.214;16.388;2023-05-10T14:32:40;19.90;86.10
19330;DHT22;9799;48.214;16.388;2023-05-10T14:36:01;19.70;83.70
19330;DHT22;9799;48.214;16.388;2023-05-10T14:39:23;19.90;84.40
19330;DHT22;9799;48.214;16.388;2023-05-10T14:42:45;19.60;84.80
19330;DHT22;9799;48.214;16.388;2023-05-10T14:46:06;19.50;84.70
19330;DHT22;9799;48.214;16.388;2023-05-10T14:49:28;19.40;86.10
19330;DHT22;9799;48.214;16.388;2023-05-10T14:52:49;19.50;85.70
19330;DHT22;9799;48.214;16.388;2023-05-10T14:56:11;19.50;86.60
19330;DHT22;9799;48.214;16.388;2023-05-10T14:59:32;19.50;86.40
19330;DHT22;9799;48.214;16.388;2023-05-10T15:02:53;19.90;86.10
19330;DHT22;9799;48.214;16.388;2023-05-10T15:06:16;19.80;89.70
19330;DHT22;9799;48.214;16.388;2023-05-10T15:09:37;19.80;88.60
19330;DHT22;9799;48.214;16.388;2023-05-10T15:12:59;19.80;87.30
19330;DHT22;9799;48.214;16.388;2023-05-10T15:16:20;19.70;88.20
19330;DHT22;9799;48.214;16.388;2023-05-10T15:19:41;20.00;88.10
19330;DHT22;9799;48.214;16.388;2023-05-10T15:23:04;19.90;85.30
19330;DHT22;9799;48.214;16.388;2023-05-10T15:26:25;19.70;84.50
19330;DHT22;9799;48.214;16.388;2023-05-10T15:29:46;19.60;84.00
19330;DHT22;9799;48.214;16.388;2023-05-10T15:33:08;19.40;84.50
19330;DHT22;9799;48.214;16.388;2023-05-10T15:36:29;19.60;84.30
19330;DHT22;9799;48.214;16.388;2023-05-10T15:39:52;19.70;84.50
19330;DHT22;9799;48.214;16.388;2023-05-10T15:43:13;19.50;86.60
19330;DHT22;9799;48.214;16.388;2023-05-10T15:46:34;19.60;86.70
19330;DHT22;9799;48.214;16.388;2023-05-10T15:49:57;19.50;87.60
19330;DHT22;9799;48.214;16.388;2023-05-10T15:53:18;19.40;88.60
19330;DHT22;9799;48.214;16.388;2023-05-10T15:56:41;19.30;89.10
19330;DHT22;9799;48.214;16.388;2023-05-10T16:00:02;19.30;89.60
19330;DHT22;9799;48.214;16.388;2023-05-10T16:03:24;19.30;89.80
19330;DHT22;9799;48.214;16.388;2023-05-10T16:06:45;19.30;90.00
19330;DHT22;9799;48.214;16.388;2023-05-10T16:10:08;19.30;89.50
19330;DHT22;9799;48.214;16.388;2023-05-10T16:13:31;19.20;90.00
19330;DHT22;9799;48.214;16.388;2023-05-10T16:16:52;19.30;89.50
19330;DHT22;9799;48.214;16.388;2023-05-10T16:20:13;19.40;89.70
19330;DHT22;9799;48.214;16.388;2023-05-10T16:23:35;19.50;90.10
19330;DHT22;9799;48.214;16.388;2023-05-10T16:26:56;19.50;90.00
19330;DHT22;9799;48.214;16.388;2023-05-10T16:30:18;19.50;89.80
19330;DHT22;9799;48.214;16.388;2023-05-10T16:33:40;19.20;90.00
19330;DHT22;9799;48.214;16.388;2023-05-10T16:37:01;19.20;90.00
19330;DHT22;9799;48.214;16.388;2023-05-10T16:40:22;19.10;90.10
19330;DHT22;9799;48.214;16.388;2023-05-10T16:43:43;19.10;90.00
19330;DHT22;9799;48.214;16.388;2023-05-10T16:47:08;19.00;89.90
19330;DHT22;9799;48.214;16.388;2023-05-10T16:50:30;18.90;89.70
19330;DHT22;9799;48.214;16.388;2023-05-10T16:53:51;18.80;89.90
19330;DHT22;9799;48.214;16.388;2023-05-10T16:57:13;18.80;90.20
19330;DHT22;9799;48.214;16.388;2023-05-10T17:00:34;18.80;89.20
19330;DHT22;9799;48.214;16.388;2023-05-10T17:03:56;18.80;89.80
19330;DHT22;9799;48.214;16.388;2023-05-10T17:07:18;18.70;90.30
19330;DHT22;9799;48.214;16.388;2023-05-10T17:10:39;18.70;90.60
19330;DHT22;9799;48.214;16.388;2023-05-10T17:14:00;18.60;90.90
19330;DHT22;9799;48.214;16.388;2023-05-10T17:17:22;18.50;90.90
19330;DHT22;9799;48.214;16.388;2023-05-10T17:20:45;18.60;91.00
19330;DHT22;9799;48.214;16.388;2023-05-10T17:24:06;18.60;90.90
19330;DHT22;9799;48.214;16.388;2023-05-10T17:27:27;18.60;90.90
19330;DHT22;9799;48.214;16.388;2023-05-10T17:30:54;18.50;90.90
19330;DHT22;9799;48.214;16.388;2023-05-10T17:34:16;18.50;90.80
19330;DHT22;9799;48.214;16.388;2023-05-10T17:37:38;18.40;90.90
19330;DHT22;9799;48.214;16.388;2023-05-10T17:41:00;18.40;91.20
19330;DHT22;9799;48.214;16.388;2023-05-10T17:44:21;18.40;91.00
19330;DHT22;9799;48.214;16.388;2023-05-10T17:47:44;18.40;91.00
19330;DHT22;9799;48.214;16.388;2023-05-10T17:51:05;18.40;91.00
19330;DHT22;9799;48.214;16.388;2023-05-10T17:54:28;18.50;91.00
19330;DHT22;9799;48.214;16.388;2023-05-10T17:57:49;18.40;91.20
19330;DHT22;9799;48.214;16.388;2023-05-10T18:01:10;18.30;91.40
19330;DHT22;9799;48.214;16.388;2023-05-10T18:04:31;18.30;91.30
19330;DHT22;9799;48.214;16.388;2023-05-10T18:07:53;18.20;91.40
19330;DHT22;9799;48.214;16.388;2023-05-10T18:11:15;18.30;91.40
19330;DHT22;9799;48.214;16.388;2023-05-10T18:14:36;18.20;91.30
19330;DHT22;9799;48.214;16.388;2023-05-10T18:18:00;18.20;91.30
19330;DHT22;9799;48.214;16.388;2023-05-10T18:21:21;18.20;91.40
19330;DHT22;9799;48.214;16.388;2023-05-10T18:24:42;18.10;91.70
19330;DHT22;9799;48.214;16.388;2023-05-10T18:28:05;18.10;91.80
19330;DHT22;9799;48.214;16.388;2023-05-10T18:31:27;18.10;92.10
19330;DHT22;9799;48.214;16.388;2023-05-10T18:34:48;18.10;92.00
19330;DHT22;9799;48.214;16.388;2023-05-10T18:38:09;18.00;91.80
19330;DHT22;9799;48.214;16.388;2023-05-10T18:41:31;18.00;92.10
19330;DHT22;9799;48.214;16.388;2023-05-10T18:44:53;18.00;92.30
19330;DHT22;9799;48.214;16.388;2023-05-10T18:48:15;18.00;92.50
19330;DHT22;9799;48.214;16.388;2023-05-10T18:51:36;18.00;92.70
19330;DHT22;9799;48.214;16.388;2023-05-10T18:54:58;18.00;93.10
19330;DHT22;9799;48.214;16.388;2023-05-10T18:58:20;17.90;93.00
19330;DHT22;9799;48.214;16.388;2023-05-10T19:01:43;17.90;93.10
19330;DHT22;9799;48.214;16.388;2023-05-10T19:05:05;17.90;93.30
19330;DHT22;9799;48.214;16.388;2023-05-10T19:08:27;17.80;93.40
19330;DHT22;9799;48.214;16.388;2023-05-10T19:11:49;17.90;93.60
19330;DHT22;9799;48.214;16.388;2023-05-10T19:15:12;17.80;93.70
19330;DHT22;9799;48.214;16.388;2023-05-10T19:18:35;17.80;93.80
19330;DHT22;9799;48.214;16.388;2023-05-10T19:21:58;17.80;94.10
19330;DHT22;9799;48.214;16.388;2023-05-10T19:25:20;17.80;94.40
19330;DHT22;9799;48.214;16.388;2023-05-10T19:28:43;17.80;94.30
19330;DHT22;9799;48.214;16.388;2023-05-10T19:32:05;17.80;94.60
19330;DHT22;9799;48.214;16.388;2023-05-10T19:35:27;17.70;94.60
19330;DHT22;9799;48.214;16.388;2023-05-10T19:38:49;17.70;94.80
19330;DHT22;9799;48.214;16.388;2023-05-10T19:42:10;17.70;94.90
19330;DHT22;9799;48.214;16.388;2023-05-10T19:45:32;17.70;95.20
19330;DHT22;9799;48.214;16.388;2023-05-10T19:48:53;17.60;95.10
19330;DHT22;9799;48.214;16.388;2023-05-10T19:52:15;17.50;95.60
19330;DHT22;9799;48.214;16.388;2023-05-10T19:55:37;17.50;95.50
19330;DHT22;9799;48.214;16.388;2023-05-10T19:58:58;17.50;95.60
19330;DHT22;9799;48.214;16.388;2023-05-10T20:02:22;17.50;95.60
19330;DHT22;9799;48.214;16.388;2023-05-10T20:05:43;17.50;95.70
19330;DHT22;9799;48.214;16.388;2023-05-10T20:09:06;17.40;95.80
19330;DHT22;9799;48.214;16.388;2023-05-10T20:12:28;17.50;96.40
19330;DHT22;9799;48.214;16.388;2023-05-10T20:15:54;17.50;96.30
19330;DHT22;9799;48.214;16.388;2023-05-10T20:19:16;17.50;96.40
19330;DHT22;9799;48.214;16.388;2023-05-10T20:22:38;17.40;96.40
19330;DHT22;9799;48.214;16.388;2023-05-10T20:26:00;17.40;96.60
19330;DHT22;9799;48.214;16.388;2023-05-10T20:29:22;17.40;96.80
19330;DHT22;9799;48.214;16.388;2023-05-10T20:32:44;17.40;96.90
19330;DHT22;9799;48.214;16.388;2023-05-10T20:36:05;17.30;97.20
19330;DHT22;9799;48.214;16.388;2023-05-10T20:39:28;17.30;97.30
19330;DHT22;9799;48.214;16.388;2023-05-10T20:42:50;17.30;97.70
19330;DHT22;9799;48.214;16.388;2023-05-10T20:46:12;17.20;97.80
19330;DHT22;9799;48.214;16.388;2023-05-10T20:49:34;17.20;97.90
19330;DHT22;9799;48.214;16.388;2023-05-10T20:52:56;17.20;98.20
19330;DHT22;9799;48.214;16.388;2023-05-10T20:56:19;17.20;98.30
19330;DHT22;9799;48.214;16.388;2023-05-10T20:59:41;17.20;98.30
19330;DHT22;9799;48.214;16.388;2023-05-10T21:03:03;17.10;98.30
19330;DHT22;9799;48.214;16.388;2023-05-10T21:06:24;17.10;98.20
19330;DHT22;9799;48.214;16.388;2023-05-10T21:09:45;17.10;98.30
19330;DHT22;9799;48.214;16.388;2023-05-10T21:13:06;17.10;98.70
19330;DHT22;9799;48.214;16.388;2023-05-10T21:16:30;17.10;98.70
19330;DHT22;9799;48.214;16.388;2023-05-10T21:19:51;17.20;99.00
19330;DHT22;9799;48.214;16.388;2023-05-10T21:23:12;17.10;99.00